North Cambridge, Massachusetts
Current Conditions -  °F | °C
As of 4:54 AM on Saturday 20 Dec 2014 (Local Time) from KBOS Reporting Station
Few Clouds Few Clouds  
Wind Chill: 19°   Ceiling: Unl
Heat Index: 28°   Visibility: 10mi
Dew Point: 20°   Wind: 9mph
Humidity: 72%   Direction: 350°N
Pressure: 30.21"   Gusts: NA
Location:  42.3933°N, 71.1333°W
Report Text: KBOS 200954Z 35008KT 10SM FEW033 M02/M07 A3021 RMK AO2 SLP228 T10221067
Loading
Personal Weather Stations






























Interactive Weather Map New forecast layout! Learn more

10-Day Weather Forecast

Advertisements
Track Severe Weather on mobile